Time;durP1;ratioP1;P1;durP2;ratioP2;P2;SDS_P1;SDS_P2;PMS_P1;PMS_P2;Temp;Humidity;BMP_temperature;BMP_pressure;BME280_temperature;BME280_humidity;BME280_pressure;Samples;Min_cycle;Max_cycle;Signal;HPM_P1;HPM_P2
2022/10/28 00:03:27;;;;;;;11.55;4.95;;;17.90;99.90;;;;;;10093556;28;20041;-63
2022/10/28 00:08:18;;;;;;;7.78;3.83;;;18.00;99.90;;;;;;10095204;28;20462;-63
2022/10/28 00:13:08;;;;;;;7.55;3.60;;;18.00;99.90;;;;;;10097719;28;20247;-64
2022/10/28 00:17:59;;;;;;;6.28;2.85;;;18.00;99.90;;;;;;10100500;28;20044;-64
2022/10/28 00:22:50;;;;;;;4.88;2.80;;;17.90;99.90;;;;;;10097439;28;20205;-64
2022/10/28 00:27:42;;;;;;;5.38;3.13;;;17.90;99.90;;;;;;10097616;28;20067;-63
2022/10/28 00:32:33;;;;;;;6.78;2.92;;;17.90;99.90;;;;;;10094216;28;20036;-63
2022/10/28 00:37:24;;;;;;;5.75;2.80;;;17.90;99.90;;;;;;10100205;28;20021;-62
2022/10/28 00:42:21;;;;;;;7.38;3.50;;;17.80;99.90;;;;;;10107099;28;20250;-63
2022/10/28 00:47:33;;;;;;;5.10;2.95;;;17.80;99.90;;;;;;10100344;28;20029;-63
2022/10/28 00:52:25;;;;;;;4.95;3.08;;;17.80;99.90;;;;;;10102739;28;20036;-64
2022/10/28 00:57:20;;;;;;;8.73;3.42;;;17.80;99.90;;;;;;10100273;28;20247;-63
2022/10/28 01:02:11;;;;;;;6.75;3.47;;;17.90;99.90;;;;;;10098992;28;20049;-64
2022/10/28 01:07:02;;;;;;;11.20;3.75;;;17.80;99.90;;;;;;10098406;28;20048;-63
2022/10/28 01:12:02;;;;;;;7.15;3.28;;;17.90;99.90;;;;;;10102097;28;20072;-64
2022/10/28 01:17:08;;;;;;;7.50;3.30;;;17.90;99.90;;;;;;10120206;28;20057;-64
2022/10/28 01:22:16;;;;;;;5.20;3.50;;;17.80;99.90;;;;;;10102488;28;21972;-65
2022/10/28 01:27:28;;;;;;;9.27;3.40;;;17.80;99.90;;;;;;10109315;28;20033;-64
2022/10/28 01:32:39;;;;;;;7.97;3.60;;;17.70;99.90;;;;;;10104949;28;20029;-64
2022/10/28 01:37:39;;;;;;;9.63;3.08;;;17.80;99.90;;;;;;10111798;28;20029;-64
2022/10/28 01:42:43;;;;;;;6.18;2.90;;;17.80;99.90;;;;;;10097590;28;20541;-64
2022/10/28 01:47:41;;;;;;;8.90;3.40;;;17.80;99.90;;;;;;10094809;28;20037;-63
2022/10/28 01:52:32;;;;;;;7.45;3.20;;;17.80;99.90;;;;;;10105654;28;20021;-63
2022/10/28 01:57:24;;;;;;;6.75;4.22;;;17.80;99.90;;;;;;10105338;28;20169;-63
2022/10/28 02:02:16;;;;;;;6.03;3.80;;;17.80;99.90;;;;;;10102530;28;20055;-64
2022/10/28 02:07:07;;;;;;;7.88;3.35;;;17.70;99.90;;;;;;10104180;28;20510;-63
2022/10/28 02:12:25;;;;;;;6.72;3.10;;;17.70;99.90;;;;;;10103998;28;20063;-63
2022/10/28 02:17:30;;;;;;;6.53;3.42;;;17.70;99.90;;;;;;10096540;28;20029;-64
2022/10/28 02:22:44;;;;;;;7.65;3.15;;;17.70;99.90;;;;;;10094632;28;20063;-64
2022/10/28 02:27:37;;;;;;;4.78;3.17;;;17.70;99.90;;;;;;10104526;28;20064;-63
2022/10/28 02:32:32;;;;;;;12.10;3.58;;;17.70;99.90;;;;;;10108819;28;20078;-63
2022/10/28 02:37:28;;;;;;;6.90;3.13;;;17.70;99.90;;;;;;10105517;28;20037;-64
2022/10/28 02:42:48;;;;;;;5.90;3.03;;;17.70;99.90;;;;;;10102024;28;20051;-64
2022/10/28 02:47:45;;;;;;;10.05;3.58;;;17.60;99.90;;;;;;10104594;28;20092;-64
2022/10/28 02:52:37;;;;;;;9.23;3.30;;;17.60;99.90;;;;;;10108061;28;20021;-64
2022/10/28 02:57:32;;;;;;;9.45;3.40;;;17.60;99.90;;;;;;10104806;28;20025;-63
2022/10/28 03:02:24;;;;;;;5.85;3.47;;;17.70;99.90;;;;;;10106286;28;20324;-64
2022/10/28 03:07:15;;;;;;;6.30;2.67;;;17.70;99.90;;;;;;10105074;28;20051;-64
2022/10/28 03:12:05;;;;;;;5.05;3.28;;;17.60;99.90;;;;;;10107011;28;20032;-65
2022/10/28 03:16:56;;;;;;;11.32;3.45;;;17.60;99.90;;;;;;10098865;28;20060;-64
2022/10/28 03:21:47;;;;;;;7.45;4.95;;;17.60;99.90;;;;;;10101618;28;20144;-63
2022/10/28 03:26:37;;;;;;;5.85;3.28;;;17.60;99.90;;;;;;10099646;28;20036;-64
2022/10/28 03:31:28;;;;;;;8.30;3.13;;;17.60;99.90;;;;;;10100846;28;20014;-64
2022/10/28 03:36:19;;;;;;;5.10;3.08;;;17.60;99.90;;;;;;10100172;28;20247;-64
2022/10/28 03:41:09;;;;;;;4.93;2.50;;;17.50;99.90;;;;;;10102472;28;20262;-66
2022/10/28 03:46:00;;;;;;;4.88;2.63;;;17.40;99.90;;;;;;10097193;28;20076;-63
2022/10/28 03:50:54;;;;;;;7.22;3.17;;;17.50;99.90;;;;;;10086034;28;20096;-64
2022/10/28 03:55:52;;;;;;;5.97;2.47;;;17.60;99.90;;;;;;10091099;28;20231;-63
2022/10/28 04:00:42;;;;;;;9.98;2.97;;;17.60;99.90;;;;;;10095470;28;20105;-63
2022/10/28 04:05:33;;;;;;;6.95;3.35;;;17.50;99.90;;;;;;10099837;28;20162;-63
2022/10/28 04:10:23;;;;;;;4.53;2.63;;;17.50;99.90;;;;;;10098032;28;20136;-63
2022/10/28 04:15:14;;;;;;;6.82;2.83;;;17.60;99.90;;;;;;10102647;28;20053;-63
2022/10/28 04:20:05;;;;;;;3.35;2.33;;;17.60;99.90;;;;;;10106135;28;20043;-64
2022/10/28 04:24:56;;;;;;;8.13;2.92;;;17.60;99.90;;;;;;10098654;28;20037;-64
2022/10/28 04:29:47;;;;;;;6.20;2.42;;;17.60;99.90;;;;;;10104822;28;20499;-64
2022/10/28 04:34:37;;;;;;;6.10;2.75;;;17.60;99.90;;;;;;10105882;28;20176;-64
2022/10/28 04:39:28;;;;;;;4.57;2.72;;;17.70;99.90;;;;;;10105812;28;20021;-65
2022/10/28 04:44:19;;;;;;;7.57;2.95;;;17.70;99.90;;;;;;10091716;28;20139;-63
2022/10/28 04:49:10;;;;;;;6.07;2.72;;;17.60;99.90;;;;;;10105243;28;20320;-63
2022/10/28 04:54:00;;;;;;;12.57;2.83;;;17.60;99.90;;;;;;10100289;28;20016;-64
2022/10/28 04:58:51;;;;;;;7.03;3.05;;;17.60;99.90;;;;;;10103442;28;20053;-64
2022/10/28 05:03:41;;;;;;;4.28;2.75;;;17.50;99.90;;;;;;10099896;28;20051;-64
2022/10/28 05:08:32;;;;;;;6.97;2.78;;;17.50;99.90;;;;;;10099540;28;20071;-64
2022/10/28 05:13:23;;;;;;;6.40;3.08;;;17.40;99.90;;;;;;10104259;28;20451;-65
2022/10/28 05:18:14;;;;;;;7.10;2.75;;;17.30;99.90;;;;;;10091400;28;20025;-62
2022/10/28 05:23:04;;;;;;;8.80;3.38;;;17.40;99.90;;;;;;10094449;28;20037;-64
2022/10/28 05:27:59;;;;;;;7.57;3.00;;;17.40;99.90;;;;;;10100019;28;20029;-63
2022/10/28 05:32:49;;;;;;;3.40;2.45;;;17.40;99.90;;;;;;10090672;28;20395;-65
2022/10/28 05:37:40;;;;;;;4.47;2.42;;;17.40;99.90;;;;;;10093570;28;20052;-63
2022/10/28 05:42:30;;;;;;;5.32;2.25;;;17.40;99.90;;;;;;10103070;28;20059;-64
2022/10/28 05:47:21;;;;;;;8.73;3.15;;;17.40;99.90;;;;;;10093620;28;20024;-64
2022/10/28 05:52:12;;;;;;;8.57;3.17;;;17.40;99.90;;;;;;10090110;28;20021;-63
2022/10/28 05:57:02;;;;;;;6.95;3.90;;;17.40;99.90;;;;;;10108918;28;20037;-64
2022/10/28 06:01:53;;;;;;;6.50;3.10;;;17.40;99.90;;;;;;10115267;28;20355;-64
2022/10/28 06:06:43;;;;;;;6.40;2.95;;;17.40;99.90;;;;;;10109767;28;20428;-64
2022/10/28 06:11:34;;;;;;;5.93;3.67;;;17.40;99.90;;;;;;10098469;28;20025;-64
2022/10/28 06:16:25;;;;;;;6.80;3.65;;;17.30;99.90;;;;;;10114469;28;20052;-64
2022/10/28 06:21:16;;;;;;;7.57;3.80;;;17.30;99.90;;;;;;10108837;28;20033;-64
2022/10/28 06:26:08;;;;;;;11.50;3.42;;;17.30;99.90;;;;;;10101995;28;20044;-66
2022/10/28 06:31:03;;;;;;;6.20;3.65;;;17.20;99.90;;;;;;10099109;28;20021;-64
2022/10/28 06:35:58;;;;;;;6.90;3.28;;;17.30;99.90;;;;;;10114535;28;20025;-67
2022/10/28 06:40:48;;;;;;;6.13;2.92;;;17.30;99.90;;;;;;10110278;28;20454;-65
2022/10/28 06:45:39;;;;;;;5.50;3.72;;;17.30;99.90;;;;;;10104954;28;20037;-65
2022/10/28 06:50:30;;;;;;;6.57;3.55;;;17.30;99.90;;;;;;10100337;28;20029;-64
2022/10/28 06:55:21;;;;;;;9.85;3.28;;;17.40;99.90;;;;;;10097526;28;20060;-64
2022/10/28 07:00:12;;;;;;;5.18;2.85;;;17.50;99.90;;;;;;10099969;28;20045;-65
2022/10/28 07:05:03;;;;;;;7.03;3.35;;;17.40;99.90;;;;;;10098724;28;20108;-65
2022/10/28 07:09:54;;;;;;;8.68;2.90;;;17.50;99.90;;;;;;10098100;28;20037;-64
2022/10/28 07:14:44;;;;;;;7.43;3.70;;;17.70;99.90;;;;;;10099606;28;20020;-64
2022/10/28 07:19:35;;;;;;;8.73;3.25;;;17.70;99.90;;;;;;10096442;28;20013;-64
2022/10/28 07:24:26;;;;;;;8.88;3.20;;;17.80;99.90;;;;;;10096498;28;20071;-63
2022/10/28 07:29:17;;;;;;;3.15;2.28;;;17.80;99.90;;;;;;10098753;28;20466;-63
2022/10/28 07:34:07;;;;;;;4.32;2.78;;;17.80;99.90;;;;;;10096641;28;20032;-65
2022/10/28 07:38:58;;;;;;;4.43;2.50;;;17.90;99.90;;;;;;10108381;28;20025;-64
2022/10/28 07:43:49;;;;;;;6.50;2.67;;;18.10;99.90;;;;;;10106837;28;20036;-64
2022/10/28 07:48:40;;;;;;;6.88;3.22;;;18.10;99.90;;;;;;10107514;28;20100;-67
2022/10/28 07:53:31;;;;;;;7.70;3.22;;;18.20;99.90;;;;;;10108203;28;20035;-65
2022/10/28 07:58:21;;;;;;;6.95;3.22;;;18.30;99.90;;;;;;10107593;28;20023;-66
2022/10/28 08:03:12;;;;;;;4.95;3.40;;;18.40;99.90;;;;;;10110044;28;20048;-63
2022/10/28 08:08:02;;;;;;;4.93;2.33;;;18.50;99.90;;;;;;10095066;28;20033;-63
2022/10/28 08:12:56;;;;;;;10.13;3.10;;;18.60;99.90;;;;;;10104069;28;20522;-63
2022/10/28 08:17:50;;;;;;;4.20;2.53;;;18.70;99.90;;;;;;10087745;28;20079;-64
2022/10/28 08:22:40;;;;;;;8.95;3.67;;;18.70;99.90;;;;;;10096737;28;20555;-64
2022/10/28 08:27:31;;;;;;;8.57;3.13;;;18.70;99.90;;;;;;10099677;28;20039;-64
2022/10/28 08:32:22;;;;;;;6.38;2.95;;;18.80;99.90;;;;;;10082758;28;20024;-65
2022/10/28 08:37:14;;;;;;;11.65;2.78;;;18.80;99.90;;;;;;10095344;28;20040;-65
2022/10/28 08:42:26;;;;;;;5.53;2.72;;;18.90;99.90;;;;;;10090086;28;20075;-66
2022/10/28 08:47:19;;;;;;;6.35;2.67;;;19.10;99.90;;;;;;10090997;28;20058;-64
2022/10/28 08:52:19;;;;;;;6.65;2.90;;;19.30;99.90;;;;;;10081887;28;20068;-67
2022/10/28 08:57:17;;;;;;;10.48;4.13;;;19.40;99.90;;;;;;10089878;28;20029;-66
2022/10/28 09:02:21;;;;;;;5.15;2.70;;;19.50;99.90;;;;;;10086287;28;20071;-64
2022/10/28 09:07:21;;;;;;;6.70;2.80;;;19.70;99.90;;;;;;10102800;28;20166;-64
2022/10/28 09:12:33;;;;;;;5.38;2.20;;;19.90;99.90;;;;;;10105261;28;20036;-64
2022/10/28 09:17:28;;;;;;;5.25;2.40;;;20.10;99.90;;;;;;10101783;28;20478;-63
2022/10/28 09:22:37;;;;;;;6.18;2.58;;;20.20;99.90;;;;;;10104823;28;20028;-64
2022/10/28 09:27:51;;;;;;;4.90;3.00;;;20.60;99.90;;;;;;10104203;28;20090;-64
2022/10/28 09:33:06;;;;;;;5.38;2.40;;;20.70;99.90;;;;;;10111061;28;20035;-64
2022/10/28 09:38:21;;;;;;;4.50;2.60;;;20.60;99.90;;;;;;10114621;28;20438;-64
2022/10/28 09:43:37;;;;;;;9.20;2.72;;;20.70;99.90;;;;;;10113128;28;20302;-62
2022/10/28 09:48:30;;;;;;;6.90;3.28;;;20.70;99.90;;;;;;10105422;28;20560;-63
2022/10/28 09:53:43;;;;;;;7.50;3.33;;;20.80;99.90;;;;;;10105364;28;20020;-65
2022/10/28 09:58:35;;;;;;;6.70;2.20;;;20.90;99.90;;;;;;10105350;28;20013;-64
2022/10/28 10:03:26;;;;;;;4.43;2.42;;;21.00;99.90;;;;;;10095957;28;20359;-67
2022/10/28 10:08:19;;;;;;;6.63;2.15;;;21.00;99.90;;;;;;10092309;28;20045;-66
2022/10/28 10:13:12;;;;;;;7.80;2.92;;;21.00;99.90;;;;;;10090108;28;20423;-69
2022/10/28 10:18:06;;;;;;;11.23;2.40;;;21.10;99.90;;;;;;10093284;28;20016;-65
2022/10/28 10:22:56;;;;;;;6.57;2.90;;;21.20;99.90;;;;;;10097149;28;20442;-64
2022/10/28 10:28:00;;;;;;;5.90;2.22;;;21.40;99.90;;;;;;10097271;28;20243;-65
2022/10/28 10:32:51;;;;;;;5.95;3.17;;;21.50;99.90;;;;;;10093188;28;20083;-64
2022/10/28 10:37:44;;;;;;;7.95;2.60;;;21.70;99.90;;;;;;10108882;28;20439;-66
2022/10/28 10:42:36;;;;;;;10.02;2.92;;;21.90;99.90;;;;;;10090208;28;20025;-65
2022/10/28 10:47:27;;;;;;;4.95;2.40;;;21.90;99.90;;;;;;10100789;28;20033;-63
2022/10/28 10:52:21;;;;;;;8.75;2.42;;;21.90;99.90;;;;;;10097907;28;20033;-64
2022/10/28 10:57:19;;;;;;;5.32;2.28;;;22.00;99.90;;;;;;10092655;28;20036;-63
2022/10/28 11:02:24;;;;;;;6.43;3.13;;;22.10;99.90;;;;;;10089882;28;20036;-64
2022/10/28 11:07:15;;;;;;;4.32;2.42;;;22.20;99.90;;;;;;10089588;28;20049;-63
2022/10/28 11:12:34;;;;;;;5.00;1.98;;;22.40;99.90;;;;;;10094343;28;20154;-64
2022/10/28 11:17:27;;;;;;;11.50;2.67;;;22.50;99.90;;;;;;10088933;28;20090;-64
2022/10/28 11:22:28;;;;;;;5.20;2.55;;;22.30;99.90;;;;;;10088571;28;20065;-63
2022/10/28 11:27:40;;;;;;;9.90;2.83;;;22.20;99.90;;;;;;10086855;28;20025;-64
2022/10/28 11:32:48;;;;;;;12.65;3.05;;;22.50;99.90;;;;;;10090183;28;20126;-64
2022/10/28 11:37:57;;;;;;;4.85;2.60;;;22.60;99.90;;;;;;10098780;28;20013;-65
2022/10/28 11:43:06;;;;;;;5.25;2.30;;;22.50;99.90;;;;;;10094225;28;20376;-64
2022/10/28 11:48:04;;;;;;;17.48;4.18;;;22.60;99.90;;;;;;10084489;28;20464;-63
2022/10/28 11:53:13;;;;;;;3.97;2.40;;;22.70;99.90;;;;;;10089984;28;20124;-64
2022/10/28 11:58:25;;;;;;;5.22;2.17;;;22.90;99.90;;;;;;10102315;28;20145;-63
2022/10/28 12:03:22;;;;;;;8.20;2.78;;;23.00;99.90;;;;;;10099106;28;20119;-63
2022/10/28 12:08:25;;;;;;;5.40;2.90;;;23.10;99.90;;;;;;10097007;28;20387;-63
2022/10/28 12:13:45;;;;;;;5.22;2.20;;;23.30;99.90;;;;;;10096736;28;20525;-63
2022/10/28 12:18:55;;;;;;;7.13;2.10;;;23.50;99.90;;;;;;10099634;28;20033;-65
2022/10/28 12:23:48;;;;;;;5.45;2.42;;;23.70;99.90;;;;;;10102755;28;20091;-65
2022/10/28 12:28:41;;;;;;;7.15;3.53;;;24.00;99.90;;;;;;10100118;28;20533;-64
2022/10/28 12:33:39;;;;;;;6.90;2.87;;;24.30;99.90;;;;;;10100442;28;20025;-64
2022/10/28 12:38:48;;;;;;;11.32;3.15;;;24.50;99.90;;;;;;10086294;28;20021;-64
2022/10/28 12:43:54;;;;;;;5.55;2.40;;;24.80;99.90;;;;;;10103328;28;20086;-63
2022/10/28 12:48:52;;;;;;;7.35;2.75;;;25.10;99.90;;;;;;10087904;28;20017;-64
2022/10/28 12:54:36;;;;;;;6.85;2.05;;;25.10;99.90;;;;;;10091227;28;20512;-63
2022/10/28 13:00:00;;;;;;;5.40;2.03;;;25.30;99.80;;;;;;10038438;28;20064;-63
2022/10/28 13:04:51;;;;;;;5.40;2.30;;;25.30;99.80;;;;;;10108796;28;20055;-63
2022/10/28 13:09:44;;;;;;;10.00;3.00;;;25.20;99.90;;;;;;10112873;28;20055;-63
2022/10/28 13:15:04;;;;;;;5.20;2.80;;;25.20;99.90;;;;;;10113033;28;20020;-61
2022/10/28 13:20:16;;;;;;;8.50;3.35;;;25.60;99.50;;;;;;10095955;28;20082;-63
2022/10/28 13:25:12;;;;;;;7.97;3.85;;;26.00;99.20;;;;;;10115745;28;20036;-63
2022/10/28 13:30:05;;;;;;;8.48;2.70;;;25.90;99.30;;;;;;10111335;28;20434;-65
2022/10/28 13:34:56;;;;;;;9.48;3.78;;;25.40;99.50;;;;;;10112176;28;20033;-65
2022/10/28 13:39:47;;;;;;;7.00;2.80;;;25.00;99.60;;;;;;10126159;28;20036;-64
2022/10/28 13:44:59;;;;;;;7.60;2.85;;;24.70;99.60;;;;;;10110837;28;20036;-62
2022/10/28 13:50:05;;;;;;;6.88;2.55;;;24.60;99.60;;;;;;10103746;28;20487;-63
2022/10/28 13:54:59;;;;;;;8.07;2.80;;;24.70;99.50;;;;;;10104009;28;20039;-65
2022/10/28 13:59:58;;;;;;;11.02;3.05;;;25.00;99.40;;;;;;10106294;28;20057;-63
2022/10/28 14:04:59;;;;;;;6.22;2.72;;;25.30;99.20;;;;;;10105169;28;20041;-63
2022/10/28 14:09:52;;;;;;;7.97;3.60;;;25.10;99.30;;;;;;10101395;28;20530;-63
2022/10/28 14:15:13;;;;;;;8.60;4.30;;;25.20;99.30;;;;;;10099746;28;20096;-64
2022/10/28 14:20:19;;;;;;;4.65;2.70;;;25.30;99.20;;;;;;10091856;28;20264;-62
2022/10/28 14:25:43;;;;;;;9.63;2.97;;;25.30;99.30;;;;;;10097659;28;20044;-64
2022/10/28 14:30:36;;;;;;;5.38;2.92;;;25.30;99.30;;;;;;10092101;28;20040;-63
2022/10/28 14:35:41;;;;;;;8.63;3.00;;;25.20;99.40;;;;;;10091658;28;20898;-62
2022/10/28 14:40:53;;;;;;;7.78;3.35;;;25.10;99.50;;;;;;10101261;28;20024;-62
2022/10/28 14:46:04;;;;;;;9.70;3.47;;;24.90;99.90;;;;;;10104900;28;20082;-63
2022/10/28 14:50:55;;;;;;;10.93;2.85;;;24.90;99.70;;;;;;10101658;28;20094;-63
2022/10/28 14:55:51;;;;;;;7.68;2.78;;;24.90;99.80;;;;;;10100977;28;20035;-63
2022/10/28 15:01:04;;;;;;;6.10;2.72;;;24.80;99.90;;;;;;10099999;28;20020;-62
2022/10/28 15:05:55;;;;;;;8.00;3.28;;;24.60;99.90;;;;;;10101528;28;20065;-63
2022/10/28 15:10:48;;;;;;;7.38;3.72;;;24.50;99.90;;;;;;10099403;28;20020;-62
2022/10/28 15:15:49;;;;;;;5.70;2.00;;;24.40;99.90;;;;;;10103126;28;20395;-64
2022/10/28 15:20:40;;;;;;;6.43;2.97;;;24.40;99.90;;;;;;10092432;28;20108;-63
2022/10/28 15:25:31;;;;;;;6.35;2.80;;;24.20;99.90;;;;;;10096372;28;20120;-62
2022/10/28 15:30:24;;;;;;;6.43;2.67;;;24.00;99.90;;;;;;10092773;28;20036;-64
2022/10/28 15:35:28;;;;;;;4.13;2.78;;;23.70;99.90;;;;;;10093476;28;20065;-66
2022/10/28 15:40:31;;;;;;;6.60;2.88;;;23.40;99.90;;;;;;10096392;28;20033;-63
2022/10/28 15:45:30;;;;;;;9.68;3.97;;;23.30;99.90;;;;;;10098466;28;20208;-64
2022/10/28 15:50:27;;;;;;;13.38;5.45;;;23.10;99.90;;;;;;10092373;28;20043;-66
2022/10/28 15:55:17;;;;;;;10.15;4.85;;;22.90;99.90;;;;;;10090427;28;20036;-66
2022/10/28 16:00:32;;;;;;;9.60;5.28;;;22.70;99.90;;;;;;10088722;28;20025;-65
2022/10/28 16:05:31;;;;;;;9.23;4.93;;;22.60;99.90;;;;;;10087691;28;20049;-64
2022/10/28 16:10:22;;;;;;;10.30;5.15;;;22.40;99.90;;;;;;10094872;28;20033;-63
2022/10/28 16:15:14;;;;;;;14.98;4.78;;;22.30;99.90;;;;;;10088401;28;20033;-63
2022/10/28 16:20:12;;;;;;;9.75;4.53;;;22.20;99.90;;;;;;10087144;28;20051;-63
2022/10/28 16:25:19;;;;;;;8.50;4.88;;;22.10;99.90;;;;;;10094068;28;20033;-63
2022/10/28 16:30:10;;;;;;;24.77;11.15;;;22.10;99.90;;;;;;10096157;28;20147;-63
2022/10/28 16:35:01;;;;;;;18.70;7.53;;;22.00;99.90;;;;;;10092760;28;20037;-63
2022/10/28 16:39:53;;;;;;;19.45;8.18;;;22.00;99.90;;;;;;10092826;28;20006;-63
2022/10/28 16:44:44;;;;;;;11.68;6.32;;;22.10;99.90;;;;;;10098780;28;20037;-65
2022/10/28 16:49:34;;;;;;;13.45;6.68;;;22.10;99.90;;;;;;10096047;28;20028;-64
2022/10/28 16:54:25;;;;;;;13.02;7.30;;;22.00;99.90;;;;;;10097009;28;20039;-67
2022/10/28 16:59:15;;;;;;;21.13;6.68;;;22.00;99.90;;;;;;10090477;28;20435;-65
2022/10/28 17:04:08;;;;;;;13.25;6.60;;;21.90;99.90;;;;;;10091904;28;20118;-64
2022/10/28 17:08:59;;;;;;;18.27;8.32;;;21.80;99.90;;;;;;10096872;28;20500;-64
2022/10/28 17:13:50;;;;;;;11.35;7.15;;;21.80;99.90;;;;;;10089902;28;20052;-64
2022/10/28 17:18:43;;;;;;;14.75;6.80;;;21.80;99.90;;;;;;10093134;28;20100;-65
2022/10/28 17:23:33;;;;;;;11.93;6.50;;;21.70;99.90;;;;;;10087948;28;20076;-65
2022/10/28 17:28:24;;;;;;;12.63;7.10;;;21.60;99.90;;;;;;10090985;28;20025;-65
2022/10/28 17:33:15;;;;;;;13.13;8.80;;;21.60;99.90;;;;;;10090082;28;20174;-65
2022/10/28 17:38:05;;;;;;;14.32;8.05;;;21.50;99.90;;;;;;10089859;28;20005;-69
2022/10/28 17:42:57;;;;;;;15.65;8.65;;;21.50;99.90;;;;;;10089728;28;20037;-66
2022/10/28 17:47:48;;;;;;;14.35;7.70;;;21.40;99.90;;;;;;10089472;28;20048;-64
2022/10/28 17:52:39;;;;;;;13.15;7.22;;;21.20;99.90;;;;;;10086161;28;20502;-62
2022/10/28 17:57:29;;;;;;;13.18;6.57;;;21.20;99.90;;;;;;10096623;28;20589;-62
2022/10/28 18:02:20;;;;;;;13.00;5.18;;;21.20;99.90;;;;;;10094027;28;20036;-63
2022/10/28 18:07:11;;;;;;;9.13;4.05;;;21.20;99.90;;;;;;10097112;28;21324;-64
2022/10/28 18:12:01;;;;;;;11.10;3.55;;;21.40;99.90;;;;;;10095081;28;20035;-63
2022/10/28 18:16:52;;;;;;;9.27;4.13;;;21.50;99.90;;;;;;10114386;28;20029;-64
2022/10/28 18:21:43;;;;;;;7.45;3.10;;;21.60;99.90;;;;;;10100487;28;20033;-63
2022/10/28 18:26:36;;;;;;;10.85;3.72;;;21.50;99.90;;;;;;10100423;28;20494;-63
2022/10/28 18:31:26;;;;;;;7.20;3.53;;;21.50;99.90;;;;;;10108386;28;20032;-65
2022/10/28 18:36:29;;;;;;;7.35;3.50;;;21.40;99.90;;;;;;10101498;28;20028;-65
2022/10/28 18:41:22;;;;;;;11.18;4.65;;;21.40;99.90;;;;;;10102483;28;20040;-64
2022/10/28 18:46:13;;;;;;;11.63;5.03;;;21.30;99.90;;;;;;10093942;28;20071;-65
2022/10/28 18:51:08;;;;;;;8.90;5.50;;;21.20;99.90;;;;;;10090891;28;20068;-64
2022/10/28 18:55:59;;;;;;;13.40;5.47;;;21.30;99.90;;;;;;10096253;28;20100;-62
2022/10/28 19:00:50;;;;;;;9.15;3.67;;;21.20;99.90;;;;;;10089153;28;20507;-65
2022/10/28 19:05:40;;;;;;;9.30;3.70;;;21.20;99.90;;;;;;10097876;28;20072;-67
2022/10/28 19:10:31;;;;;;;10.75;4.60;;;21.10;99.90;;;;;;10103206;28;20025;-66
2022/10/28 19:15:22;;;;;;;10.07;4.32;;;21.10;99.90;;;;;;10113227;22;20049;-68
2022/10/28 19:20:12;;;;;;;9.35;4.18;;;21.00;99.90;;;;;;10089521;28;20036;-66
2022/10/28 19:25:03;;;;;;;10.90;3.90;;;21.00;99.90;;;;;;10101575;28;20573;-62
2022/10/28 19:29:56;;;;;;;11.18;4.18;;;21.00;99.90;;;;;;10093815;28;20033;-64
2022/10/28 19:34:47;;;;;;;7.97;3.75;;;21.00;99.90;;;;;;10100118;28;20054;-65
2022/10/28 19:39:38;;;;;;;9.70;4.35;;;21.00;99.90;;;;;;10096721;28;20037;-64
2022/10/28 19:44:29;;;;;;;7.05;3.50;;;20.90;99.90;;;;;;10103986;28;20505;-65
2022/10/28 19:49:19;;;;;;;8.80;3.78;;;20.90;99.90;;;;;;10083774;28;20041;-67
2022/10/28 19:54:12;;;;;;;7.03;3.10;;;20.90;99.90;;;;;;10092546;28;20494;-65
2022/10/28 19:59:04;;;;;;;7.88;3.78;;;20.90;99.90;;;;;;10090858;28;20055;-66
2022/10/28 20:03:55;;;;;;;7.57;3.70;;;20.90;99.90;;;;;;10101251;28;20052;-63
2022/10/28 20:08:47;;;;;;;8.57;3.10;;;20.80;99.90;;;;;;10100484;28;20111;-64
2022/10/28 20:13:38;;;;;;;8.32;4.10;;;20.80;99.90;;;;;;10101208;28;20541;-64
2022/10/28 20:18:30;;;;;;;11.82;3.83;;;20.70;99.90;;;;;;10089500;28;20025;-70
2022/10/28 20:23:21;;;;;;;14.95;3.72;;;20.60;99.90;;;;;;10089464;28;20100;-73
2022/10/28 20:28:12;;;;;;;11.27;3.35;;;20.60;99.90;;;;;;10097380;28;20029;-73
2022/10/28 20:33:02;;;;;;;8.25;3.70;;;20.50;99.90;;;;;;10102097;28;20022;-66
2022/10/28 20:37:53;;;;;;;13.32;4.45;;;20.40;99.90;;;;;;10085834;28;20021;-71
2022/10/28 20:42:44;;;;;;;9.88;4.43;;;20.30;99.90;;;;;;10085624;28;20076;-65
2022/10/28 20:47:34;;;;;;;9.45;4.05;;;20.20;99.90;;;;;;10092354;28;20174;-65
2022/10/28 20:52:25;;;;;;;9.75;3.67;;;20.10;99.90;;;;;;10101364;28;20041;-67
2022/10/28 20:57:15;;;;;;;9.45;3.83;;;20.00;99.90;;;;;;10105021;28;20310;-69
2022/10/28 21:02:08;;;;;;;6.60;4.10;;;20.00;99.90;;;;;;10085876;28;20037;-65
2022/10/28 21:06:59;;;;;;;7.68;3.67;;;20.00;99.90;;;;;;10089525;28;20120;-66
2022/10/28 21:11:49;;;;;;;13.50;4.25;;;19.90;99.90;;;;;;10101520;28;20051;-69
2022/10/28 21:16:40;;;;;;;11.05;4.82;;;19.90;99.90;;;;;;10099068;28;20214;-68
2022/10/28 21:21:31;;;;;;;9.85;3.67;;;19.90;99.90;;;;;;10085269;28;20041;-63
2022/10/28 21:26:21;;;;;;;7.70;3.88;;;19.80;99.90;;;;;;10097718;28;20441;-67
2022/10/28 21:31:15;;;;;;;10.20;4.78;;;19.80;99.90;;;;;;10098096;28;20391;-66
2022/10/28 21:36:13;;;;;;;5.53;3.00;;;19.80;99.90;;;;;;10098873;28;20016;-67
2022/10/28 21:41:12;;;;;;;8.77;3.70;;;19.70;99.90;;;;;;10102548;28;20021;-65
2022/10/28 21:46:03;;;;;;;6.75;3.28;;;19.60;99.90;;;;;;10105648;28;20048;-64
2022/10/28 21:50:56;;;;;;;9.18;3.65;;;19.60;99.90;;;;;;10105821;28;20208;-61
2022/10/28 21:55:47;;;;;;;13.32;4.60;;;19.50;99.90;;;;;;10104784;28;20308;-72
2022/10/28 22:00:38;;;;;;;11.25;4.25;;;19.50;99.90;;;;;;10103323;28;20035;-64
2022/10/28 22:05:28;;;;;;;9.80;3.75;;;19.50;99.90;;;;;;10101728;28;20315;-70
2022/10/28 22:10:19;;;;;;;12.77;3.80;;;19.40;99.90;;;;;;10107726;28;20329;-65
2022/10/28 22:15:10;;;;;;;10.48;5.18;;;19.30;99.90;;;;;;10110761;28;20224;-68
2022/10/28 22:20:00;;;;;;;9.15;4.47;;;19.30;99.90;;;;;;10105757;28;20127;-63
2022/10/28 22:24:51;;;;;;;8.15;4.13;;;19.30;99.90;;;;;;10101181;28;20032;-63
2022/10/28 22:29:42;;;;;;;10.35;4.53;;;19.30;99.90;;;;;;10095935;28;20104;-65
2022/10/28 22:34:32;;;;;;;9.40;4.45;;;19.30;99.90;;;;;;10090243;28;20111;-65
2022/10/28 22:39:23;;;;;;;10.45;3.63;;;19.20;99.90;;;;;;10088015;28;20031;-65
2022/10/28 22:44:14;;;;;;;9.95;3.70;;;19.20;99.90;;;;;;10091932;28;20045;-66
2022/10/28 22:49:04;;;;;;;15.20;4.55;;;19.10;99.90;;;;;;10088755;28;20021;-66
2022/10/28 22:53:55;;;;;;;8.32;4.35;;;19.20;99.90;;;;;;10085303;28;20060;-67
2022/10/28 22:58:47;;;;;;;12.02;4.68;;;19.20;99.90;;;;;;10091016;28;20291;-66
2022/10/28 23:03:40;;;;;;;8.48;3.53;;;19.20;99.90;;;;;;10091762;28;20049;-64
2022/10/28 23:08:31;;;;;;;7.40;2.88;;;19.20;99.90;;;;;;10092533;28;20973;-66
2022/10/28 23:13:21;;;;;;;5.40;3.33;;;19.10;99.90;;;;;;10087273;28;20071;-68
2022/10/28 23:18:12;;;;;;;10.77;4.35;;;19.10;99.90;;;;;;10080661;28;20156;-65
2022/10/28 23:23:03;;;;;;;7.57;4.13;;;19.10;99.90;;;;;;10082975;28;20384;-65
2022/10/28 23:27:54;;;;;;;10.68;5.10;;;19.10;99.90;;;;;;10088566;28;20041;-65
2022/10/28 23:32:44;;;;;;;10.32;3.40;;;19.00;99.90;;;;;;10100102;28;20308;-64
2022/10/28 23:37:35;;;;;;;7.10;3.40;;;19.00;99.90;;;;;;10102443;28;20013;-65
2022/10/28 23:42:26;;;;;;;6.25;4.50;;;19.00;99.90;;;;;;10111008;28;20106;-67
2022/10/28 23:47:16;;;;;;;12.38;4.45;;;19.00;99.90;;;;;;10104327;28;20047;-67
2022/10/28 23:52:07;;;;;;;6.70;3.03;;;19.00;99.90;;;;;;10103577;28;20244;-66
2022/10/28 23:56:58;;;;;;;4.88;3.08;;;19.00;99.90;;;;;;10110366;28;20245;-65
